createdAt,value
2017-07-01T00:00:45.763Z,14.50
2017-07-01T00:03:13.283Z,14.40
2017-07-01T00:05:40.787Z,14.30
2017-07-01T00:08:08.311Z,14.30
2017-07-01T00:10:35.816Z,14.20
2017-07-01T00:13:03.315Z,14.00
2017-07-01T00:15:30.835Z,14.00
2017-07-01T00:17:58.336Z,13.90
2017-07-01T00:20:25.859Z,14.00
2017-07-01T00:22:53.363Z,13.90
2017-07-01T00:25:21.650Z,14.00
2017-07-01T00:27:49.922Z,14.00
2017-07-01T00:30:18.216Z,14.00
2017-07-01T00:32:45.720Z,14.00
2017-07-01T00:35:13.219Z,14.00
2017-07-01T00:37:41.508Z,13.90
2017-07-01T00:40:09.014Z,13.90
2017-07-01T00:42:36.527Z,13.90
2017-07-01T00:45:04.031Z,13.80
2017-07-01T00:47:31.547Z,13.80
2017-07-01T00:49:59.043Z,13.90
2017-07-01T00:52:26.571Z,13.90
2017-07-01T00:54:54.071Z,13.90
2017-07-01T00:57:21.566Z,14.00
2017-07-01T00:59:49.078Z,13.90
2017-07-01T01:02:16.583Z,13.90
2017-07-01T01:04:44.104Z,13.90
2017-07-01T01:07:11.611Z,14.00
2017-07-01T01:09:39.135Z,14.00
2017-07-01T01:12:06.627Z,14.00
2017-07-01T01:14:34.163Z,14.10
2017-07-01T01:17:01.668Z,14.10
2017-07-01T01:19:29.163Z,14.00
2017-07-01T01:21:57.523Z,14.00
2017-07-01T01:24:25.027Z,14.10
2017-07-01T01:26:52.546Z,14.10
2017-07-01T01:29:20.052Z,14.10
2017-07-01T01:31:47.571Z,14.10
2017-07-01T01:34:15.073Z,14.20
2017-07-01T01:36:42.599Z,14.10
2017-07-01T01:39:10.099Z,14.10
2017-07-01T01:41:37.603Z,14.10
2017-07-01T01:44:05.148Z,14.10
2017-07-01T01:46:32.655Z,14.20
2017-07-01T01:49:00.176Z,14.20
2017-07-01T01:51:27.679Z,14.20
2017-07-01T01:53:55.191Z,14.10
2017-07-01T01:56:22.694Z,14.10
2017-07-01T01:58:50.216Z,14.20
2017-07-01T02:01:17.727Z,14.10
2017-07-01T02:03:45.231Z,14.20
2017-07-01T02:06:12.751Z,14.20
2017-07-01T02:08:44.124Z,14.20
2017-07-01T02:11:11.638Z,14.20
2017-07-01T02:13:39.139Z,14.20
2017-07-01T02:16:08.587Z,14.20
2017-07-01T02:18:36.091Z,14.20
2017-07-01T02:21:07.451Z,14.20
2017-07-01T02:23:34.951Z,14.20
2017-07-01T02:26:21.278Z,14.20
2017-07-01T02:28:50.019Z,14.20
2017-07-01T02:31:19.101Z,14.20
2017-07-01T02:33:51.359Z,14.20
2017-07-01T02:36:21.788Z,14.20
2017-07-01T02:38:49.307Z,14.20
2017-07-01T02:41:16.811Z,14.30
2017-07-01T02:43:44.332Z,14.20
2017-07-01T02:46:19.478Z,14.20
2017-07-01T02:48:52.536Z,14.20
2017-07-01T02:51:39.643Z,14.20
2017-07-01T02:54:07.162Z,14.20
2017-07-01T02:56:37.287Z,14.20
2017-07-01T02:59:15.530Z,14.10
2017-07-01T03:01:51.679Z,14.20
2017-07-01T03:04:19.968Z,14.20
2017-07-01T03:06:47.473Z,14.20
2017-07-01T03:09:14.979Z,14.20
2017-07-01T03:11:43.265Z,14.10
2017-07-01T03:14:10.768Z,14.10
2017-07-01T03:16:38.291Z,14.10
2017-07-01T03:19:05.787Z,14.10
2017-07-01T03:21:33.323Z,14.10
2017-07-01T03:24:00.826Z,14.10
2017-07-01T03:26:28.319Z,14.10
2017-07-01T03:28:57.680Z,14.10
2017-07-01T03:31:25.179Z,14.10
2017-07-01T03:33:52.692Z,14.10
2017-07-01T03:36:20.948Z,14.10
2017-07-01T03:39:00.606Z,14.10
2017-07-01T03:41:51.539Z,14.10
2017-07-01T03:44:35.209Z,14.10
2017-07-01T03:47:02.707Z,14.10
2017-07-01T03:49:33.972Z,14.10
2017-07-01T03:52:02.238Z,14.10
2017-07-01T03:54:34.403Z,14.10
2017-07-01T03:57:01.924Z,14.00
2017-07-01T03:59:29.426Z,14.10
2017-07-01T04:01:56.942Z,14.10
2017-07-01T04:04:24.444Z,14.10
2017-07-01T04:06:51.963Z,14.10
2017-07-01T04:09:19.468Z,14.10
2017-07-01T04:11:48.591Z,14.10
2017-07-01T04:14:16.115Z,14.10
2017-07-01T04:16:44.382Z,14.10
2017-07-01T04:19:12.619Z,14.10
2017-07-01T04:21:40.121Z,14.10
2017-07-01T04:24:07.651Z,14.20
2017-07-01T04:26:35.151Z,14.20
2017-07-01T04:29:03.419Z,14.30
2017-07-01T04:31:31.703Z,14.30
2017-07-01T04:33:59.971Z,14.40
2017-07-01T04:36:28.251Z,14.40
2017-07-01T04:39:12.589Z,14.40
2017-07-01T04:42:14.620Z,14.40
2017-07-01T04:44:42.121Z,14.40
2017-07-01T04:47:09.640Z,14.40
2017-07-01T04:49:37.143Z,14.50
2017-07-01T04:52:06.843Z,14.50
2017-07-01T04:54:37.830Z,14.50
2017-07-01T04:57:20.226Z,14.60
2017-07-01T05:00:05.247Z,14.60
2017-07-01T05:02:32.772Z,14.70
2017-07-01T05:05:00.276Z,14.70
2017-07-01T05:07:48.705Z,14.70
2017-07-01T05:10:22.207Z,14.80
2017-07-01T05:12:49.727Z,14.80
2017-07-01T05:15:37.984Z,14.80
2017-07-01T05:18:05.519Z,15.00
2017-07-01T05:20:49.851Z,15.20
2017-07-01T05:23:26.767Z,15.50
2017-07-01T05:26:07.704Z,15.50
2017-07-01T05:28:39.668Z,15.10
2017-07-01T05:31:26.807Z,14.80
2017-07-01T05:34:03.907Z,14.80
2017-07-01T05:36:33.258Z,14.60
2017-07-01T05:39:01.624Z,14.50
2017-07-01T05:41:34.007Z,14.30
2017-07-01T05:44:03.214Z,14.30
2017-07-01T05:46:36.964Z,14.20
2017-07-01T05:49:04.466Z,14.20
2017-07-01T05:51:49.727Z,14.30
2017-07-01T05:54:24.690Z,14.40
2017-07-01T05:56:52.212Z,14.40
2017-07-01T05:59:22.644Z,14.50
2017-07-01T06:01:50.143Z,14.50
2017-07-01T06:04:17.668Z,14.60
2017-07-01T06:06:45.162Z,14.50
2017-07-01T06:09:12.679Z,14.60
2017-07-01T06:11:40.193Z,14.70
2017-07-01T06:14:07.706Z,14.80
2017-07-01T06:16:39.716Z,14.70
2017-07-01T06:19:17.160Z,14.80
2017-07-01T06:21:46.267Z,14.90
2017-07-01T06:24:21.307Z,14.90
2017-07-01T06:27:18.291Z,14.90
2017-07-01T06:29:54.504Z,15.00
2017-07-01T06:32:43.475Z,14.90
2017-07-01T06:35:32.071Z,15.30
2017-07-01T06:38:31.163Z,15.20
2017-07-01T06:41:16.127Z,16.00
2017-07-01T06:44:00.376Z,16.40
2017-07-01T06:46:31.302Z,17.20
2017-07-01T06:49:06.575Z,17.50
2017-07-01T06:51:34.090Z,18.00
2017-07-01T06:54:17.315Z,17.80
2017-07-01T06:56:44.831Z,17.40
2017-07-01T06:59:12.327Z,17.40
2017-07-01T07:01:39.833Z,17.70
2017-07-01T07:04:07.343Z,17.90
2017-07-01T07:06:34.843Z,18.10
2017-07-01T07:09:05.171Z,18.30
2017-07-01T07:11:32.674Z,18.60
2017-07-01T07:14:00.940Z,18.20
2017-07-01T07:16:29.233Z,18.00
2017-07-01T07:18:56.735Z,17.90
2017-07-01T07:21:24.255Z,17.90
2017-07-01T07:23:52.520Z,17.70
2017-07-01T07:26:20.049Z,17.70
2017-07-01T07:28:47.576Z,17.80
2017-07-01T07:31:15.079Z,17.40
2017-07-01T07:33:42.600Z,17.40
2017-07-01T07:36:10.132Z,17.40
2017-07-01T07:38:37.689Z,17.50
2017-07-01T07:41:05.212Z,18.00
2017-07-01T07:43:32.723Z,18.10
2017-07-01T07:46:00.244Z,18.10
2017-07-01T07:48:27.747Z,17.80
2017-07-01T07:50:55.267Z,17.60
2017-07-01T07:53:22.767Z,17.60
2017-07-01T07:55:50.271Z,17.30
2017-07-01T07:58:18.565Z,17.40
2017-07-01T08:00:46.067Z,17.40
2017-07-01T08:03:13.587Z,17.30
2017-07-01T08:05:41.092Z,17.30
2017-07-01T08:08:08.607Z,17.50
2017-07-01T08:10:36.127Z,17.90
2017-07-01T08:13:03.671Z,18.30
2017-07-01T08:15:31.183Z,18.80
2017-07-01T08:17:58.687Z,18.50
2017-07-01T08:20:26.203Z,18.30
2017-07-01T08:22:53.711Z,17.90
2017-07-01T08:25:21.203Z,18.10
2017-07-01T08:27:49.487Z,18.20
2017-07-01T08:30:16.983Z,18.20
2017-07-01T08:32:44.494Z,18.30
2017-07-01T08:35:12.762Z,18.80
2017-07-01T08:37:40.290Z,18.80
2017-07-01T08:40:07.795Z,19.00
2017-07-01T08:42:35.295Z,18.80
2017-07-01T08:45:02.823Z,19.10
2017-07-01T08:47:30.332Z,18.80
2017-07-01T08:49:57.851Z,19.20
2017-07-01T08:52:25.355Z,19.10
2017-07-01T08:54:52.879Z,19.60
2017-07-01T08:57:20.377Z,19.60
2017-07-01T08:59:47.885Z,19.30
2017-07-01T09:02:15.403Z,19.50
2017-07-01T09:04:42.907Z,19.70
2017-07-01T09:07:10.435Z,19.80
2017-07-01T09:09:37.934Z,19.40
2017-07-01T09:12:05.435Z,19.00
2017-07-01T09:14:32.959Z,19.50
2017-07-01T09:17:00.460Z,19.60
2017-07-01T09:19:28.756Z,20.20
2017-07-01T09:21:56.260Z,20.20
2017-07-01T09:24:23.761Z,19.60
2017-07-01T09:26:51.279Z,19.30
2017-07-01T09:29:18.785Z,19.40
2017-07-01T09:31:46.314Z,19.60
2017-07-01T09:34:13.811Z,19.60
2017-07-01T09:36:41.312Z,20.20
2017-07-01T09:39:08.834Z,20.10
2017-07-01T09:41:36.335Z,20.20
2017-07-01T09:44:03.851Z,20.00
2017-07-01T09:46:31.350Z,20.20
2017-07-01T09:48:58.879Z,20.60
2017-07-01T09:51:26.384Z,21.20
2017-07-01T09:53:53.889Z,21.20
2017-07-01T09:56:21.412Z,20.50
2017-07-01T09:58:48.915Z,21.00
2017-07-01T10:01:16.438Z,21.20
2017-07-01T10:03:43.940Z,21.60
2017-07-01T10:06:11.443Z,21.80
2017-07-01T10:08:38.964Z,22.00
2017-07-01T10:11:06.472Z,21.10
2017-07-01T10:13:33.996Z,21.00
2017-07-01T10:16:01.495Z,21.10
2017-07-01T10:18:29.000Z,21.30
2017-07-01T10:20:56.525Z,20.90
2017-07-01T10:23:24.028Z,20.90
2017-07-01T10:25:51.564Z,20.90
2017-07-01T10:28:19.071Z,20.50
2017-07-01T10:30:46.576Z,20.60
2017-07-01T10:33:14.100Z,20.90
2017-07-01T10:35:41.644Z,20.20
2017-07-01T10:38:09.919Z,19.40
2017-07-01T10:40:37.418Z,19.40
2017-07-01T10:43:04.915Z,20.00
2017-07-01T10:45:32.434Z,20.60
2017-07-01T10:47:59.940Z,20.50
2017-07-01T10:50:28.235Z,20.00
2017-07-01T10:52:55.734Z,20.00
2017-07-01T10:55:23.226Z,19.90
2017-07-01T10:57:50.742Z,19.80
2017-07-01T11:00:18.248Z,19.60
2017-07-01T11:02:46.534Z,19.40
2017-07-01T11:05:14.042Z,19.40
2017-07-01T11:07:41.547Z,19.30
2017-07-01T11:10:09.071Z,19.90
2017-07-01T11:12:36.575Z,20.20
2017-07-01T11:15:04.103Z,19.90
2017-07-01T11:17:31.606Z,19.70
2017-07-01T11:19:59.105Z,19.90
2017-07-01T11:22:26.630Z,20.20
2017-07-01T11:24:54.135Z,20.80
2017-07-01T11:27:21.671Z,20.50
2017-07-01T11:29:49.183Z,20.20
2017-07-01T11:32:16.690Z,20.30
2017-07-01T11:34:44.211Z,20.20
2017-07-01T11:37:11.715Z,19.90
2017-07-01T11:39:39.244Z,19.90
2017-07-01T11:42:06.747Z,20.10
2017-07-01T11:44:34.246Z,20.50
2017-07-01T11:47:01.757Z,21.20
2017-07-01T11:49:29.261Z,21.20
2017-07-01T11:51:56.786Z,21.70
2017-07-01T11:54:25.053Z,21.30
2017-07-01T11:56:52.554Z,21.30
2017-07-01T11:59:20.073Z,21.20
2017-07-01T12:01:47.579Z,20.70
2017-07-01T12:04:15.107Z,20.60
2017-07-01T12:06:42.607Z,20.60
2017-07-01T12:09:10.107Z,20.90
2017-07-01T12:11:38.395Z,21.50
2017-07-01T12:14:06.666Z,21.40
2017-07-01T12:16:34.954Z,20.80
2017-07-01T12:19:02.452Z,20.80
2017-07-01T12:21:29.954Z,20.40
2017-07-01T12:23:58.243Z,20.00
2017-07-01T12:26:25.743Z,20.00
2017-07-01T12:28:53.267Z,20.30
2017-07-01T12:31:20.767Z,20.60
2017-07-01T12:33:48.264Z,20.80
2017-07-01T12:36:16.547Z,21.20
2017-07-01T12:38:44.056Z,21.10
2017-07-01T12:41:11.583Z,20.80
2017-07-01T12:43:39.083Z,20.50
2017-07-01T12:46:06.587Z,20.60
2017-07-01T12:48:34.103Z,20.60
2017-07-01T12:51:01.599Z,21.00
2017-07-01T12:53:29.125Z,21.20
2017-07-01T12:55:56.622Z,21.40
2017-07-01T12:58:24.120Z,21.10
2017-07-01T13:00:51.638Z,21.30
2017-07-01T13:03:19.147Z,21.30
2017-07-01T13:05:46.667Z,21.10
2017-07-01T13:08:14.174Z,21.00
2017-07-01T13:10:41.676Z,20.80
2017-07-01T13:13:09.202Z,20.70
2017-07-01T13:15:36.703Z,20.60
2017-07-01T13:18:04.227Z,20.60
2017-07-01T13:20:31.749Z,20.90
2017-07-01T13:22:59.255Z,20.70
2017-07-01T13:25:26.775Z,20.60
2017-07-01T13:27:54.284Z,20.50
2017-07-01T13:30:21.787Z,20.30
2017-07-01T13:32:49.308Z,20.30
2017-07-01T13:35:16.807Z,20.20
2017-07-01T13:37:44.327Z,20.30
2017-07-01T13:40:11.827Z,20.50
2017-07-01T13:42:39.342Z,21.10
2017-07-01T13:45:06.859Z,21.10
2017-07-01T13:47:34.367Z,21.00
2017-07-01T13:50:01.887Z,21.00
2017-07-01T13:52:30.156Z,21.20
2017-07-01T13:54:58.447Z,21.40
2017-07-01T13:57:25.967Z,21.30
2017-07-01T13:59:53.472Z,21.20
2017-07-01T14:02:20.988Z,21.20
2017-07-01T14:04:48.486Z,21.20
2017-07-01T14:07:16.011Z,21.30
2017-07-01T14:09:44.387Z,21.00
2017-07-01T14:12:11.916Z,21.30
2017-07-01T14:14:39.430Z,21.20
2017-07-01T14:17:06.940Z,20.80
2017-07-01T14:19:34.481Z,20.90
2017-07-01T14:22:01.986Z,21.20
2017-07-01T14:24:29.499Z,21.10
2017-07-01T14:26:57.011Z,21.00
2017-07-01T14:29:25.283Z,21.30
2017-07-01T14:31:52.794Z,21.20
2017-07-01T14:34:20.302Z,21.40
2017-07-01T14:36:48.590Z,21.00
2017-07-01T14:39:16.091Z,21.00
2017-07-01T14:41:43.600Z,21.00
2017-07-01T14:44:11.886Z,21.10
2017-07-01T14:46:39.392Z,21.10
2017-07-01T14:49:06.912Z,21.00
2017-07-01T14:51:34.414Z,21.00
2017-07-01T14:54:01.914Z,20.90
2017-07-01T14:56:29.431Z,21.00
2017-07-01T14:58:56.950Z,21.20
2017-07-01T15:01:24.467Z,21.20
2017-07-01T15:03:51.970Z,21.20
2017-07-01T15:06:19.477Z,21.00
2017-07-01T15:08:46.994Z,20.90
2017-07-01T15:11:14.495Z,20.80
2017-07-01T15:13:42.019Z,20.90
2017-07-01T15:16:09.523Z,20.70
2017-07-01T15:18:37.023Z,20.80
2017-07-01T15:21:04.551Z,20.80
2017-07-01T15:23:32.055Z,20.60
2017-07-01T15:25:59.579Z,20.70
2017-07-01T15:28:27.094Z,20.90
2017-07-01T15:30:54.603Z,20.60
2017-07-01T15:33:22.123Z,20.50
2017-07-01T15:35:49.626Z,20.40
2017-07-01T15:38:17.151Z,20.30
2017-07-01T15:40:45.419Z,20.20
2017-07-01T15:43:12.924Z,20.20
2017-07-01T15:45:40.439Z,20.30
2017-07-01T15:48:07.943Z,20.40
2017-07-01T15:50:35.463Z,20.30
2017-07-01T15:53:03.731Z,20.40
2017-07-01T15:55:31.251Z,20.30
2017-07-01T15:57:58.756Z,20.40
2017-07-01T16:00:39.091Z,20.40
2017-07-01T16:03:06.596Z,20.40
2017-07-01T16:05:34.132Z,20.30
2017-07-01T16:08:02.415Z,20.20
2017-07-01T16:10:29.919Z,20.20
2017-07-01T16:12:57.434Z,20.30
2017-07-01T16:15:24.937Z,20.10
2017-07-01T16:17:52.451Z,19.90
2017-07-01T16:20:19.951Z,20.10
2017-07-01T16:22:47.483Z,20.00
2017-07-01T16:25:14.984Z,19.90
2017-07-01T16:27:42.486Z,20.10
2017-07-01T16:30:10.002Z,20.10
2017-07-01T16:32:37.502Z,20.20
2017-07-01T16:35:05.021Z,20.20
2017-07-01T16:37:32.531Z,20.30
2017-07-01T16:40:00.052Z,20.40
2017-07-01T16:42:27.559Z,20.10
2017-07-01T16:44:55.063Z,20.00
2017-07-01T16:47:22.585Z,20.10
2017-07-01T16:49:50.083Z,20.30
2017-07-01T16:52:17.603Z,20.30
2017-07-01T16:54:45.103Z,20.20
2017-07-01T16:57:12.628Z,20.20
2017-07-01T16:59:40.143Z,20.20
2017-07-01T17:02:07.646Z,20.10
2017-07-01T17:04:35.163Z,19.80
2017-07-01T17:07:02.667Z,19.60
2017-07-01T17:09:30.183Z,19.70
2017-07-01T17:11:57.687Z,20.00
2017-07-01T17:14:25.208Z,20.00
2017-07-01T17:16:52.707Z,20.00
2017-07-01T17:19:20.212Z,19.90
2017-07-01T17:21:47.734Z,19.80
2017-07-01T17:24:16.003Z,20.00
2017-07-01T17:26:43.531Z,20.00
2017-07-01T17:29:11.035Z,19.90
2017-07-01T17:31:39.327Z,19.90
2017-07-01T17:34:06.830Z,19.90
2017-07-01T17:36:34.331Z,19.70
2017-07-01T17:39:02.612Z,19.40
2017-07-01T17:41:30.116Z,19.30
2017-07-01T17:43:57.635Z,19.20
2017-07-01T17:46:25.155Z,19.10
2017-07-01T17:48:52.671Z,18.90
2017-07-01T17:51:20.171Z,18.70
2017-07-01T17:53:47.671Z,18.50
2017-07-01T17:56:15.202Z,18.40
2017-07-01T17:58:42.702Z,18.30
2017-07-01T18:01:10.219Z,18.20
2017-07-01T18:03:37.727Z,18.00
2017-07-01T18:06:05.239Z,18.00
2017-07-01T18:08:32.748Z,17.90
2017-07-01T18:11:00.251Z,17.80
2017-07-01T18:13:28.531Z,17.80
2017-07-01T18:15:56.039Z,17.80
2017-07-01T18:18:23.559Z,17.80
2017-07-01T18:20:51.063Z,17.70
2017-07-01T18:23:18.594Z,17.70
2017-07-01T18:25:46.091Z,17.70
2017-07-01T18:28:13.595Z,17.70
2017-07-01T18:30:41.119Z,17.60
2017-07-01T18:33:08.622Z,17.70
2017-07-01T18:35:36.138Z,17.70
2017-07-01T18:38:03.634Z,17.70
2017-07-01T18:40:31.162Z,17.60
2017-07-01T18:42:58.667Z,17.70
2017-07-01T18:45:26.170Z,17.60
2017-07-01T18:47:53.687Z,17.50
2017-07-01T18:50:21.191Z,17.50
2017-07-01T18:52:48.711Z,17.40
2017-07-01T18:55:16.207Z,17.40
2017-07-01T18:57:43.744Z,17.40
2017-07-01T19:00:11.251Z,17.30
2017-07-01T19:02:38.751Z,17.30
2017-07-01T19:05:06.276Z,17.20
2017-07-01T19:07:33.783Z,17.20
2017-07-01T19:10:01.299Z,17.20
2017-07-01T19:12:28.802Z,17.20
2017-07-01T19:14:56.323Z,17.20
2017-07-01T19:17:23.830Z,17.10
2017-07-01T19:19:51.343Z,17.20
2017-07-01T19:22:18.867Z,17.20
2017-07-01T19:24:46.367Z,17.20
2017-07-01T19:27:13.887Z,17.20
2017-07-01T19:29:41.393Z,17.20
2017-07-01T19:32:08.917Z,17.10
2017-07-01T19:34:36.430Z,17.20
2017-07-01T19:37:03.931Z,17.10
2017-07-01T19:39:31.446Z,17.10
2017-07-01T19:41:58.938Z,17.10
2017-07-01T19:44:26.456Z,17.10
2017-07-01T19:46:53.955Z,17.00
2017-07-01T19:49:21.476Z,17.00
2017-07-01T19:51:48.979Z,17.00
2017-07-01T19:54:16.479Z,17.00
2017-07-01T19:56:43.999Z,17.00
2017-07-01T19:59:11.502Z,16.90
2017-07-01T20:01:39.020Z,16.90
2017-07-01T20:04:06.523Z,16.80
2017-07-01T20:06:34.049Z,16.90
2017-07-01T20:09:01.551Z,16.80
2017-07-01T20:11:29.051Z,16.90
2017-07-01T20:13:56.566Z,16.80
2017-07-01T20:16:24.072Z,16.80
2017-07-01T20:18:51.595Z,16.80
2017-07-01T20:21:19.867Z,16.70
2017-07-01T20:23:48.160Z,16.60
2017-07-01T20:26:15.654Z,16.60
2017-07-01T20:28:43.155Z,16.60
2017-07-01T20:31:10.674Z,16.60
2017-07-01T20:33:38.174Z,16.60
2017-07-01T20:36:06.463Z,16.60
2017-07-01T20:38:33.962Z,16.50
2017-07-01T20:41:01.484Z,16.50
2017-07-01T20:43:28.984Z,16.40
2017-07-01T20:45:56.482Z,16.40
2017-07-01T20:48:24.771Z,16.30
2017-07-01T20:50:53.038Z,16.10
2017-07-01T20:53:21.331Z,16.10
2017-07-01T20:55:48.838Z,16.10
2017-07-01T20:58:16.363Z,16.10
2017-07-01T21:00:43.863Z,16.00
2017-07-01T21:03:11.383Z,16.10
2017-07-01T21:05:38.883Z,16.00
2017-07-01T21:08:06.382Z,16.00
2017-07-01T21:10:33.899Z,15.90
2017-07-01T21:13:01.404Z,15.80
2017-07-01T21:15:28.923Z,15.80
2017-07-01T21:17:56.434Z,15.70
2017-07-01T21:20:23.967Z,15.70
2017-07-01T21:22:51.467Z,15.70
2017-07-01T21:25:18.991Z,15.70
2017-07-01T21:27:46.511Z,15.60
2017-07-01T21:30:14.010Z,15.60
2017-07-01T21:32:41.530Z,15.50
2017-07-01T21:35:09.032Z,15.50
2017-07-01T21:37:36.549Z,15.40
2017-07-01T21:40:04.057Z,15.40
2017-07-01T21:42:31.555Z,15.40
2017-07-01T21:44:59.071Z,15.40
2017-07-01T21:47:26.575Z,15.30
2017-07-01T21:49:54.091Z,15.30
2017-07-01T21:52:21.600Z,15.30
2017-07-01T21:54:49.124Z,15.30
2017-07-01T21:57:16.631Z,15.30
2017-07-01T21:59:44.903Z,15.30
2017-07-01T22:02:13.187Z,15.30
2017-07-01T22:04:41.461Z,15.30
2017-07-01T22:07:08.983Z,15.30
2017-07-01T22:09:36.489Z,15.30
2017-07-01T22:12:04.015Z,15.30
2017-07-01T22:14:31.515Z,15.30
2017-07-01T22:16:59.036Z,15.30
2017-07-01T22:19:26.541Z,15.30
2017-07-01T22:21:54.047Z,15.30
2017-07-01T22:24:21.563Z,15.30
2017-07-01T22:26:49.067Z,15.30
2017-07-01T22:29:16.605Z,15.20
2017-07-01T22:31:44.111Z,15.20
2017-07-01T22:34:11.630Z,15.10
2017-07-01T22:36:39.132Z,15.10
2017-07-01T22:39:06.646Z,15.10
2017-07-01T22:41:34.144Z,15.10
2017-07-01T22:44:01.650Z,15.10
2017-07-01T22:46:29.172Z,15.10
2017-07-01T22:48:56.683Z,15.20
2017-07-01T22:51:24.199Z,15.10
2017-07-01T22:53:51.699Z,15.10
2017-07-01T22:56:19.221Z,15.10
2017-07-01T22:58:46.719Z,15.10
2017-07-01T23:01:14.247Z,15.10
2017-07-01T23:03:41.747Z,15.10
2017-07-01T23:06:09.246Z,15.20
2017-07-01T23:08:36.767Z,15.10
2017-07-01T23:11:04.263Z,15.10
2017-07-01T23:13:31.775Z,15.10
2017-07-01T23:15:59.272Z,15.10
2017-07-01T23:18:26.786Z,15.10
2017-07-01T23:20:54.288Z,15.10
2017-07-01T23:23:21.808Z,15.10
2017-07-01T23:25:49.315Z,15.10
2017-07-01T23:28:16.811Z,15.10
2017-07-01T23:30:44.331Z,15.00
2017-07-01T23:33:11.831Z,15.00
2017-07-01T23:35:39.352Z,15.00
2017-07-01T23:38:06.855Z,15.00
2017-07-01T23:40:35.135Z,15.00
2017-07-01T23:43:03.394Z,15.00
2017-07-01T23:45:30.916Z,15.00
2017-07-01T23:47:58.420Z,15.10
2017-07-01T23:50:25.924Z,15.00
2017-07-01T23:52:53.447Z,15.00
2017-07-01T23:55:21.711Z,15.00
2017-07-01T23:57:49.227Z,15.00
